sensor_id;sensor_type;location;lat;lon;timestamp;temperature;humidity
67748;HTU21D;54543;50.712;6.070;2023-08-08T00:01:30;12.31;84.86
67748;HTU21D;54543;50.712;6.070;2023-08-08T00:03:56;12.29;84.97
67748;HTU21D;54543;50.712;6.070;2023-08-08T00:06:22;12.30;85.18
67748;HTU21D;54543;50.712;6.070;2023-08-08T00:08:47;12.30;85.16
67748;HTU21D;54543;50.712;6.070;2023-08-08T00:11:13;12.34;84.78
67748;HTU21D;54543;50.712;6.070;2023-08-08T00:13:38;12.36;84.92
67748;HTU21D;54543;50.712;6.070;2023-08-08T00:16:04;12.38;84.79
67748;HTU21D;54543;50.712;6.070;2023-08-08T00:18:30;12.42;84.76
67748;HTU21D;54543;50.712;6.070;2023-08-08T00:20:56;12.42;84.77
67748;HTU21D;54543;50.712;6.070;2023-08-08T00:23:21;12.41;84.69
67748;HTU21D;54543;50.712;6.070;2023-08-08T00:25:47;12.41;84.84
67748;HTU21D;54543;50.712;6.070;2023-08-08T00:28:15;12.36;84.87
67748;HTU21D;54543;50.712;6.070;2023-08-08T00:30:42;12.33;85.05
67748;HTU21D;54543;50.712;6.070;2023-08-08T00:33:07;12.29;85.07
67748;HTU21D;54543;50.712;6.070;2023-08-08T00:35:33;12.26;85.33
67748;HTU21D;54543;50.712;6.070;2023-08-08T00:37:58;12.22;85.42
67748;HTU21D;54543;50.712;6.070;2023-08-08T00:40:24;12.20;85.41
67748;HTU21D;54543;50.712;6.070;2023-08-08T00:42:49;12.17;85.57
67748;HTU21D;54543;50.712;6.070;2023-08-08T00:45:15;12.13;85.70
67748;HTU21D;54543;50.712;6.070;2023-08-08T00:47:41;12.12;85.80
67748;HTU21D;54543;50.712;6.070;2023-08-08T00:50:07;12.12;85.84
67748;HTU21D;54543;50.712;6.070;2023-08-08T00:52:34;12.11;85.84
67748;HTU21D;54543;50.712;6.070;2023-08-08T00:54:59;12.07;86.09
67748;HTU21D;54543;50.712;6.070;2023-08-08T00:57:25;12.04;86.15
67748;HTU21D;54543;50.712;6.070;2023-08-08T00:59:51;12.02;86.45
67748;HTU21D;54543;50.712;6.070;2023-08-08T01:02:16;12.00;89.41
67748;HTU21D;54543;50.712;6.070;2023-08-08T01:04:42;12.05;87.51
67748;HTU21D;54543;50.712;6.070;2023-08-08T01:10:03;12.11;86.99
67748;HTU21D;54543;50.712;6.070;2023-08-08T01:12:37;12.14;87.61
67748;HTU21D;54543;50.712;6.070;2023-08-08T01:15:06;12.16;87.26
67748;HTU21D;54543;50.712;6.070;2023-08-08T01:17:35;12.17;87.54
67748;HTU21D;54543;50.712;6.070;2023-08-08T01:20:03;12.19;86.90
67748;HTU21D;54543;50.712;6.070;2023-08-08T01:22:39;12.18;87.51
67748;HTU21D;54543;50.712;6.070;2023-08-08T01:25:08;12.17;87.31
67748;HTU21D;54543;50.712;6.070;2023-08-08T01:27:35;12.19;87.57
67748;HTU21D;54543;50.712;6.070;2023-08-08T01:30:01;12.19;87.35
67748;HTU21D;54543;50.712;6.070;2023-08-08T01:32:26;12.18;87.88
67748;HTU21D;54543;50.712;6.070;2023-08-08T01:34:52;12.21;88.09
67748;HTU21D;54543;50.712;6.070;2023-08-08T01:37:22;12.25;87.79
67748;HTU21D;54543;50.712;6.070;2023-08-08T01:39:50;12.23;87.94
67748;HTU21D;54543;50.712;6.070;2023-08-08T01:42:18;12.23;88.12
67748;HTU21D;54543;50.712;6.070;2023-08-08T01:44:47;12.25;88.04
67748;HTU21D;54543;50.712;6.070;2023-08-08T01:47:13;12.23;87.74
67748;HTU21D;54543;50.712;6.070;2023-08-08T01:49:39;12.26;88.45
67748;HTU21D;54543;50.712;6.070;2023-08-08T01:52:04;12.28;88.24
67748;HTU21D;54543;50.712;6.070;2023-08-08T01:54:31;12.30;87.83
67748;HTU21D;54543;50.712;6.070;2023-08-08T01:56:56;12.28;87.69
67748;HTU21D;54543;50.712;6.070;2023-08-08T01:59:22;12.27;88.52
67748;HTU21D;54543;50.712;6.070;2023-08-08T02:01:48;12.26;87.57
67748;HTU21D;54543;50.712;6.070;2023-08-08T02:04:14;12.22;87.43
67748;HTU21D;54543;50.712;6.070;2023-08-08T02:06:39;12.21;87.32
67748;HTU21D;54543;50.712;6.070;2023-08-08T02:09:05;12.20;87.28
67748;HTU21D;54543;50.712;6.070;2023-08-08T02:11:31;12.18;87.52
67748;HTU21D;54543;50.712;6.070;2023-08-08T02:13:57;12.15;87.49
67748;HTU21D;54543;50.712;6.070;2023-08-08T02:16:22;12.12;88.03
67748;HTU21D;54543;50.712;6.070;2023-08-08T02:18:48;12.13;87.56
67748;HTU21D;54543;50.712;6.070;2023-08-08T02:21:13;12.10;88.50
67748;HTU21D;54543;50.712;6.070;2023-08-08T02:23:39;12.08;88.72
67748;HTU21D;54543;50.712;6.070;2023-08-08T02:26:05;12.08;88.50
67748;HTU21D;54543;50.712;6.070;2023-08-08T02:28:30;12.07;88.65
67748;HTU21D;54543;50.712;6.070;2023-08-08T02:30:56;12.10;89.41
67748;HTU21D;54543;50.712;6.070;2023-08-08T02:33:21;12.11;88.62
67748;HTU21D;54543;50.712;6.070;2023-08-08T02:35:47;12.12;88.57
67748;HTU21D;54543;50.712;6.070;2023-08-08T02:38:13;12.11;88.35
67748;HTU21D;54543;50.712;6.070;2023-08-08T02:40:38;12.07;90.35
67748;HTU21D;54543;50.712;6.070;2023-08-08T02:43:04;12.06;89.15
67748;HTU21D;54543;50.712;6.070;2023-08-08T02:45:30;12.07;88.69
67748;HTU21D;54543;50.712;6.070;2023-08-08T02:47:55;12.07;88.71
67748;HTU21D;54543;50.712;6.070;2023-08-08T02:50:21;12.08;89.31
67748;HTU21D;54543;50.712;6.070;2023-08-08T02:52:47;12.15;88.50
67748;HTU21D;54543;50.712;6.070;2023-08-08T02:55:12;12.18;88.80
67748;HTU21D;54543;50.712;6.070;2023-08-08T02:57:38;12.25;88.92
67748;HTU21D;54543;50.712;6.070;2023-08-08T03:00:04;12.30;88.66
67748;HTU21D;54543;50.712;6.070;2023-08-08T03:02:30;12.33;88.92
67748;HTU21D;54543;50.712;6.070;2023-08-08T03:04:55;12.38;88.55
67748;HTU21D;54543;50.712;6.070;2023-08-08T03:07:21;12.41;88.96
67748;HTU21D;54543;50.712;6.070;2023-08-08T03:09:46;12.44;88.82
67748;HTU21D;54543;50.712;6.070;2023-08-08T03:12:12;12.47;88.64
67748;HTU21D;54543;50.712;6.070;2023-08-08T03:14:38;12.51;88.89
67748;HTU21D;54543;50.712;6.070;2023-08-08T03:17:04;12.55;88.40
67748;HTU21D;54543;50.712;6.070;2023-08-08T03:19:30;12.56;87.88
67748;HTU21D;54543;50.712;6.070;2023-08-08T03:21:55;12.58;88.36
67748;HTU21D;54543;50.712;6.070;2023-08-08T03:24:21;12.59;88.44
67748;HTU21D;54543;50.712;6.070;2023-08-08T03:26:47;12.61;88.85
67748;HTU21D;54543;50.712;6.070;2023-08-08T03:29:12;12.64;89.20
67748;HTU21D;54543;50.712;6.070;2023-08-08T03:31:38;12.70;88.94
67748;HTU21D;54543;50.712;6.070;2023-08-08T03:34:04;12.71;89.19
67748;HTU21D;54543;50.712;6.070;2023-08-08T03:36:30;12.71;89.54
67748;HTU21D;54543;50.712;6.070;2023-08-08T03:38:56;12.71;88.39
67748;HTU21D;54543;50.712;6.070;2023-08-08T03:41:21;12.73;88.33
67748;HTU21D;54543;50.712;6.070;2023-08-08T03:43:47;12.77;89.60
67748;HTU21D;54543;50.712;6.070;2023-08-08T03:46:12;12.85;89.62
67748;HTU21D;54543;50.712;6.070;2023-08-08T03:48:38;12.86;88.91
67748;HTU21D;54543;50.712;6.070;2023-08-08T03:51:04;12.85;88.80
67748;HTU21D;54543;50.712;6.070;2023-08-08T03:53:30;12.86;88.81
67748;HTU21D;54543;50.712;6.070;2023-08-08T03:55:55;12.88;89.80
67748;HTU21D;54543;50.712;6.070;2023-08-08T03:58:21;12.87;89.28
67748;HTU21D;54543;50.712;6.070;2023-08-08T04:00:47;12.87;89.37
67748;HTU21D;54543;50.712;6.070;2023-08-08T04:03:16;12.86;90.89
67748;HTU21D;54543;50.712;6.070;2023-08-08T04:05:46;12.86;90.53
67748;HTU21D;54543;50.712;6.070;2023-08-08T04:08:15;12.88;90.89
67748;HTU21D;54543;50.712;6.070;2023-08-08T04:10:41;12.90;90.97
67748;HTU21D;54543;50.712;6.070;2023-08-08T04:13:06;12.94;90.53
67748;HTU21D;54543;50.712;6.070;2023-08-08T04:15:32;12.97;90.85
67748;HTU21D;54543;50.712;6.070;2023-08-08T04:17:58;12.97;90.47
67748;HTU21D;54543;50.712;6.070;2023-08-08T04:20:23;13.01;90.31
67748;HTU21D;54543;50.712;6.070;2023-08-08T04:22:49;13.02;90.04
67748;HTU21D;54543;50.712;6.070;2023-08-08T04:25:15;13.00;89.69
67748;HTU21D;54543;50.712;6.070;2023-08-08T04:27:41;12.99;89.63
67748;HTU21D;54543;50.712;6.070;2023-08-08T04:30:07;13.00;90.02
67748;HTU21D;54543;50.712;6.070;2023-08-08T04:32:32;13.03;90.63
67748;HTU21D;54543;50.712;6.070;2023-08-08T04:34:58;13.08;90.28
67748;HTU21D;54543;50.712;6.070;2023-08-08T04:37:23;13.10;90.06
67748;HTU21D;54543;50.712;6.070;2023-08-08T04:39:49;13.12;90.24
67748;HTU21D;54543;50.712;6.070;2023-08-08T04:42:15;13.14;89.50
67748;HTU21D;54543;50.712;6.070;2023-08-08T04:44:40;13.12;89.36
67748;HTU21D;54543;50.712;6.070;2023-08-08T04:47:06;13.08;91.51
67748;HTU21D;54543;50.712;6.070;2023-08-08T04:49:31;13.07;90.45
67748;HTU21D;54543;50.712;6.070;2023-08-08T04:51:57;13.07;91.08
67748;HTU21D;54543;50.712;6.070;2023-08-08T04:54:23;13.07;91.92
67748;HTU21D;54543;50.712;6.070;2023-08-08T04:56:48;13.10;90.37
67748;HTU21D;54543;50.712;6.070;2023-08-08T04:59:14;13.08;90.60
67748;HTU21D;54543;50.712;6.070;2023-08-08T05:01:40;13.05;89.89
67748;HTU21D;54543;50.712;6.070;2023-08-08T05:04:05;13.04;90.79
67748;HTU21D;54543;50.712;6.070;2023-08-08T05:06:31;13.03;89.92
67748;HTU21D;54543;50.712;6.070;2023-08-08T05:08:56;12.94;91.40
67748;HTU21D;54543;50.712;6.070;2023-08-08T05:11:22;12.95;90.21
67748;HTU21D;54543;50.712;6.070;2023-08-08T05:13:48;12.92;90.35
67748;HTU21D;54543;50.712;6.070;2023-08-08T05:16:14;12.93;90.60
67748;HTU21D;54543;50.712;6.070;2023-08-08T05:18:40;12.93;91.02
67748;HTU21D;54543;50.712;6.070;2023-08-08T05:21:06;12.95;91.69
67748;HTU21D;54543;50.712;6.070;2023-08-08T05:23:32;12.99;91.61
67748;HTU21D;54543;50.712;6.070;2023-08-08T05:25:57;13.09;91.40
67748;HTU21D;54543;50.712;6.070;2023-08-08T05:28:23;13.21;90.58
67748;HTU21D;54543;50.712;6.070;2023-08-08T05:30:48;13.29;90.23
67748;HTU21D;54543;50.712;6.070;2023-08-08T05:33:14;13.32;91.39
67748;HTU21D;54543;50.712;6.070;2023-08-08T05:35:39;13.34;90.37
67748;HTU21D;54543;50.712;6.070;2023-08-08T05:38:05;13.36;90.08
67748;HTU21D;54543;50.712;6.070;2023-08-08T05:40:34;13.41;89.84
67748;HTU21D;54543;50.712;6.070;2023-08-08T05:43:00;13.40;89.86
67748;HTU21D;54543;50.712;6.070;2023-08-08T05:45:25;13.43;89.44
67748;HTU21D;54543;50.712;6.070;2023-08-08T05:47:51;13.39;90.03
67748;HTU21D;54543;50.712;6.070;2023-08-08T05:50:17;13.37;89.95
67748;HTU21D;54543;50.712;6.070;2023-08-08T05:52:42;13.35;90.71
67748;HTU21D;54543;50.712;6.070;2023-08-08T05:55:08;13.33;90.71
67748;HTU21D;54543;50.712;6.070;2023-08-08T05:57:34;13.45;90.79
67748;HTU21D;54543;50.712;6.070;2023-08-08T06:00:00;13.51;89.77
67748;HTU21D;54543;50.712;6.070;2023-08-08T06:02:25;13.54;89.92
67748;HTU21D;54543;50.712;6.070;2023-08-08T06:04:51;13.53;89.99
67748;HTU21D;54543;50.712;6.070;2023-08-08T06:07:16;13.59;90.66
67748;HTU21D;54543;50.712;6.070;2023-08-08T06:09:42;13.66;90.16
67748;HTU21D;54543;50.712;6.070;2023-08-08T06:12:08;13.74;89.52
67748;HTU21D;54543;50.712;6.070;2023-08-08T06:14:34;13.81;88.90
67748;HTU21D;54543;50.712;6.070;2023-08-08T06:17:00;13.80;89.54
67748;HTU21D;54543;50.712;6.070;2023-08-08T06:19:25;13.77;89.66
67748;HTU21D;54543;50.712;6.070;2023-08-08T06:21:51;13.78;89.38
67748;HTU21D;54543;50.712;6.070;2023-08-08T06:24:16;13.80;89.38
67748;HTU21D;54543;50.712;6.070;2023-08-08T06:26:42;13.79;89.46
67748;HTU21D;54543;50.712;6.070;2023-08-08T06:29:08;13.79;90.18
67748;HTU21D;54543;50.712;6.070;2023-08-08T06:31:34;13.84;89.83
67748;HTU21D;54543;50.712;6.070;2023-08-08T06:34:00;13.91;89.59
67748;HTU21D;54543;50.712;6.070;2023-08-08T06:36:25;13.93;89.82
67748;HTU21D;54543;50.712;6.070;2023-08-08T06:38:51;13.97;89.89
67748;HTU21D;54543;50.712;6.070;2023-08-08T06:41:17;14.01;88.92
67748;HTU21D;54543;50.712;6.070;2023-08-08T06:43:42;14.05;88.92
67748;HTU21D;54543;50.712;6.070;2023-08-08T06:46:08;14.05;88.82
67748;HTU21D;54543;50.712;6.070;2023-08-08T06:48:34;14.09;89.17
67748;HTU21D;54543;50.712;6.070;2023-08-08T06:50:59;14.18;88.89
67748;HTU21D;54543;50.712;6.070;2023-08-08T06:53:25;14.24;88.21
67748;HTU21D;54543;50.712;6.070;2023-08-08T06:55:51;14.33;87.77
67748;HTU21D;54543;50.712;6.070;2023-08-08T06:58:17;14.40;87.57
67748;HTU21D;54543;50.712;6.070;2023-08-08T07:00:43;14.45;87.40
67748;HTU21D;54543;50.712;6.070;2023-08-08T07:03:08;14.56;86.86
67748;HTU21D;54543;50.712;6.070;2023-08-08T07:05:34;14.69;86.48
67748;HTU21D;54543;50.712;6.070;2023-08-08T07:07:59;14.83;86.33
67748;HTU21D;54543;50.712;6.070;2023-08-08T07:10:25;15.02;85.83
67748;HTU21D;54543;50.712;6.070;2023-08-08T07:12:52;15.18;85.13
67748;HTU21D;54543;50.712;6.070;2023-08-08T07:15:19;15.22;83.90
67748;HTU21D;54543;50.712;6.070;2023-08-08T07:17:44;15.15;84.44
67748;HTU21D;54543;50.712;6.070;2023-08-08T07:20:10;15.09;84.79
67748;HTU21D;54543;50.712;6.070;2023-08-08T07:22:39;15.04;84.79
67748;HTU21D;54543;50.712;6.070;2023-08-08T07:25:05;15.00;84.64
67748;HTU21D;54543;50.712;6.070;2023-08-08T07:27:31;15.17;85.05
67748;HTU21D;54543;50.712;6.070;2023-08-08T07:29:56;15.38;84.17
67748;HTU21D;54543;50.712;6.070;2023-08-08T07:32:22;15.42;83.81
67748;HTU21D;54543;50.712;6.070;2023-08-08T07:34:47;15.46;83.38
67748;HTU21D;54543;50.712;6.070;2023-08-08T07:37:14;15.53;83.40
67748;HTU21D;54543;50.712;6.070;2023-08-08T07:39:39;15.66;82.22
67748;HTU21D;54543;50.712;6.070;2023-08-08T07:42:05;15.72;80.85
67748;HTU21D;54543;50.712;6.070;2023-08-08T07:44:31;15.81;82.13
67748;HTU21D;54543;50.712;6.070;2023-08-08T07:46:59;15.96;80.44
67748;HTU21D;54543;50.712;6.070;2023-08-08T07:49:25;15.95;80.41
67748;HTU21D;54543;50.712;6.070;2023-08-08T07:51:51;16.00;80.63
67748;HTU21D;54543;50.712;6.070;2023-08-08T07:54:16;16.07;80.11
67748;HTU21D;54543;50.712;6.070;2023-08-08T07:56:42;16.15;80.61
67748;HTU21D;54543;50.712;6.070;2023-08-08T07:59:08;16.19;79.73
67748;HTU21D;54543;50.712;6.070;2023-08-08T08:01:34;16.17;79.81
67748;HTU21D;54543;50.712;6.070;2023-08-08T08:04:00;16.22;78.99
67748;HTU21D;54543;50.712;6.070;2023-08-08T08:06:25;16.28;79.08
67748;HTU21D;54543;50.712;6.070;2023-08-08T08:08:52;16.26;79.59
67748;HTU21D;54543;50.712;6.070;2023-08-08T08:11:18;16.35;79.08
67748;HTU21D;54543;50.712;6.070;2023-08-08T08:13:43;16.39;79.06
67748;HTU21D;54543;50.712;6.070;2023-08-08T08:16:09;16.48;79.56
67748;HTU21D;54543;50.712;6.070;2023-08-08T08:18:35;16.49;78.69
67748;HTU21D;54543;50.712;6.070;2023-08-08T08:21:01;16.45;79.24
67748;HTU21D;54543;50.712;6.070;2023-08-08T08:23:26;16.43;77.77
67748;HTU21D;54543;50.712;6.070;2023-08-08T08:25:52;16.43;78.42
67748;HTU21D;54543;50.712;6.070;2023-08-08T08:28:18;16.47;78.66
67748;HTU21D;54543;50.712;6.070;2023-08-08T08:30:43;16.55;78.67
67748;HTU21D;54543;50.712;6.070;2023-08-08T08:33:09;16.58;77.63
67748;HTU21D;54543;50.712;6.070;2023-08-08T08:35:35;16.65;77.75
67748;HTU21D;54543;50.712;6.070;2023-08-08T08:38:01;16.76;77.71
67748;HTU21D;54543;50.712;6.070;2023-08-08T08:40:28;16.76;78.11
67748;HTU21D;54543;50.712;6.070;2023-08-08T08:42:55;16.85;78.18
67748;HTU21D;54543;50.712;6.070;2023-08-08T08:45:22;16.86;77.82
67748;HTU21D;54543;50.712;6.070;2023-08-08T08:47:49;16.96;77.80
67748;HTU21D;54543;50.712;6.070;2023-08-08T08:50:18;17.01;77.06
67748;HTU21D;54543;50.712;6.070;2023-08-08T08:52:43;17.10;77.09
67748;HTU21D;54543;50.712;6.070;2023-08-08T08:55:09;17.16;74.86
67748;HTU21D;54543;50.712;6.070;2023-08-08T08:57:36;17.23;75.88
67748;HTU21D;54543;50.712;6.070;2023-08-08T09:00:02;17.29;76.78
67748;HTU21D;54543;50.712;6.070;2023-08-08T09:02:28;17.43;76.37
67748;HTU21D;54543;50.712;6.070;2023-08-08T09:04:54;17.51;75.51
67748;HTU21D;54543;50.712;6.070;2023-08-08T09:07:22;17.51;75.03
67748;HTU21D;54543;50.712;6.070;2023-08-08T09:09:49;17.45;74.42
67748;HTU21D;54543;50.712;6.070;2023-08-08T09:12:16;17.43;74.83
67748;HTU21D;54543;50.712;6.070;2023-08-08T09:14:42;17.37;75.72
67748;HTU21D;54543;50.712;6.070;2023-08-08T09:17:14;17.40;75.75
67748;HTU21D;54543;50.712;6.070;2023-08-08T09:19:43;17.49;75.03
67748;HTU21D;54543;50.712;6.070;2023-08-08T09:22:09;17.47;74.99
67748;HTU21D;54543;50.712;6.070;2023-08-08T09:24:39;17.40;75.31
67748;HTU21D;54543;50.712;6.070;2023-08-08T09:27:07;17.41;75.83
67748;HTU21D;54543;50.712;6.070;2023-08-08T09:29:32;17.43;75.18
67748;HTU21D;54543;50.712;6.070;2023-08-08T09:31:58;17.39;74.56
67748;HTU21D;54543;50.712;6.070;2023-08-08T09:34:25;17.34;73.42
67748;HTU21D;54543;50.712;6.070;2023-08-08T09:36:52;17.38;74.44
67748;HTU21D;54543;50.712;6.070;2023-08-08T09:39:19;17.39;73.08
67748;HTU21D;54543;50.712;6.070;2023-08-08T09:41:46;17.48;74.52
67748;HTU21D;54543;50.712;6.070;2023-08-08T09:44:12;17.50;71.39
67748;HTU21D;54543;50.712;6.070;2023-08-08T09:46:39;17.54;71.77
67748;HTU21D;54543;50.712;6.070;2023-08-08T09:49:05;17.56;70.68
67748;HTU21D;54543;50.712;6.070;2023-08-08T09:51:31;17.58;71.29
67748;HTU21D;54543;50.712;6.070;2023-08-08T09:53:59;17.65;71.67
67748;HTU21D;54543;50.712;6.070;2023-08-08T09:56:24;17.75;68.38
67748;HTU21D;54543;50.712;6.070;2023-08-08T09:58:51;17.75;70.00
67748;HTU21D;54543;50.712;6.070;2023-08-08T10:01:19;17.81;68.24
67748;HTU21D;54543;50.712;6.070;2023-08-08T10:03:45;17.75;69.78
67748;HTU21D;54543;50.712;6.070;2023-08-08T10:06:12;17.82;70.25
67748;HTU21D;54543;50.712;6.070;2023-08-08T10:08:38;17.98;68.33
67748;HTU21D;54543;50.712;6.070;2023-08-08T10:11:05;17.99;68.04
67748;HTU21D;54543;50.712;6.070;2023-08-08T10:13:32;18.08;67.92
67748;HTU21D;54543;50.712;6.070;2023-08-08T10:15:57;18.13;68.88
67748;HTU21D;54543;50.712;6.070;2023-08-08T10:18:24;18.23;68.39
67748;HTU21D;54543;50.712;6.070;2023-08-08T10:20:50;18.32;67.91
67748;HTU21D;54543;50.712;6.070;2023-08-08T10:23:17;18.37;67.88
67748;HTU21D;54543;50.712;6.070;2023-08-08T10:25:48;18.41;68.47
67748;HTU21D;54543;50.712;6.070;2023-08-08T10:28:20;18.52;67.45
67748;HTU21D;54543;50.712;6.070;2023-08-08T10:31:04;18.57;64.48
67748;HTU21D;54543;50.712;6.070;2023-08-08T10:33:40;18.63;63.24
67748;HTU21D;54543;50.712;6.070;2023-08-08T10:36:07;18.63;66.92
67748;HTU21D;54543;50.712;6.070;2023-08-08T10:41:26;18.71;64.05
67748;HTU21D;54543;50.712;6.070;2023-08-08T10:43:54;18.72;64.68
67748;HTU21D;54543;50.712;6.070;2023-08-08T10:46:31;18.76;65.02
67748;HTU21D;54543;50.712;6.070;2023-08-08T10:49:01;18.84;65.42
67748;HTU21D;54543;50.712;6.070;2023-08-08T10:51:42;18.92;65.94
67748;HTU21D;54543;50.712;6.070;2023-08-08T10:54:14;18.98;66.18
67748;HTU21D;54543;50.712;6.070;2023-08-08T10:56:40;19.07;66.27
67748;HTU21D;54543;50.712;6.070;2023-08-08T10:59:20;19.07;61.97
67748;HTU21D;54543;50.712;6.070;2023-08-08T11:01:47;19.12;64.04
67748;HTU21D;54543;50.712;6.070;2023-08-08T11:04:15;19.10;61.06
67748;HTU21D;54543;50.712;6.070;2023-08-08T11:06:41;19.01;63.34
67748;HTU21D;54543;50.712;6.070;2023-08-08T11:09:07;19.01;62.45
67748;HTU21D;54543;50.712;6.070;2023-08-08T11:11:41;19.01;59.79
67748;HTU21D;54543;50.712;6.070;2023-08-08T11:14:19;19.08;59.64
67748;HTU21D;54543;50.712;6.070;2023-08-08T11:16:46;19.09;60.94
67748;HTU21D;54543;50.712;6.070;2023-08-08T11:19:13;19.07;60.80
67748;HTU21D;54543;50.712;6.070;2023-08-08T11:21:43;18.98;61.60
67748;HTU21D;54543;50.712;6.070;2023-08-08T11:24:11;18.93;60.48
67748;HTU21D;54543;50.712;6.070;2023-08-08T11:26:40;18.78;58.35
67748;HTU21D;54543;50.712;6.070;2023-08-08T11:29:06;18.55;59.41
67748;HTU21D;54543;50.712;6.070;2023-08-08T11:31:33;18.32;59.14
67748;HTU21D;54543;50.712;6.070;2023-08-08T11:33:59;18.13;59.59
67748;HTU21D;54543;50.712;6.070;2023-08-08T11:36:28;18.00;60.83
67748;HTU21D;54543;50.712;6.070;2023-08-08T11:38:54;17.99;62.32
67748;HTU21D;54543;50.712;6.070;2023-08-08T11:41:23;18.06;62.52
67748;HTU21D;54543;50.712;6.070;2023-08-08T11:43:50;18.10;62.19
67748;HTU21D;54543;50.712;6.070;2023-08-08T11:46:17;18.05;61.99
67748;HTU21D;54543;50.712;6.070;2023-08-08T11:48:43;17.98;61.41
67748;HTU21D;54543;50.712;6.070;2023-08-08T11:51:14;17.88;62.34
67748;HTU21D;54543;50.712;6.070;2023-08-08T11:53:50;17.83;62.17
67748;HTU21D;54543;50.712;6.070;2023-08-08T11:56:18;17.73;62.59
67748;HTU21D;54543;50.712;6.070;2023-08-08T11:58:44;17.72;62.50
67748;HTU21D;54543;50.712;6.070;2023-08-08T12:01:10;17.66;63.10
67748;HTU21D;54543;50.712;6.070;2023-08-08T12:03:39;17.72;63.46
67748;HTU21D;54543;50.712;6.070;2023-08-08T12:06:15;17.76;62.05
67748;HTU21D;54543;50.712;6.070;2023-08-08T12:08:45;17.69;63.19
67748;HTU21D;54543;50.712;6.070;2023-08-08T12:11:12;17.63;63.11
67748;HTU21D;54543;50.712;6.070;2023-08-08T12:13:39;17.64;62.59
67748;HTU21D;54543;50.712;6.070;2023-08-08T12:16:06;17.58;62.85
67748;HTU21D;54543;50.712;6.070;2023-08-08T12:18:35;17.52;63.57
67748;HTU21D;54543;50.712;6.070;2023-08-08T12:21:01;17.48;63.76
67748;HTU21D;54543;50.712;6.070;2023-08-08T12:23:27;17.47;64.04
67748;HTU21D;54543;50.712;6.070;2023-08-08T12:25:53;17.47;64.28
67748;HTU21D;54543;50.712;6.070;2023-08-08T12:28:19;17.49;63.70
67748;HTU21D;54543;50.712;6.070;2023-08-08T12:30:45;17.53;64.55
67748;HTU21D;54543;50.712;6.070;2023-08-08T12:33:10;17.52;64.67
67748;HTU21D;54543;50.712;6.070;2023-08-08T12:35:36;17.56;64.69
67748;HTU21D;54543;50.712;6.070;2023-08-08T12:38:01;17.69;64.76
67748;HTU21D;54543;50.712;6.070;2023-08-08T12:40:28;17.70;64.94
67748;HTU21D;54543;50.712;6.070;2023-08-08T12:42:54;17.75;64.97
67748;HTU21D;54543;50.712;6.070;2023-08-08T12:45:19;17.78;65.24
67748;HTU21D;54543;50.712;6.070;2023-08-08T12:47:45;17.85;65.24
67748;HTU21D;54543;50.712;6.070;2023-08-08T12:50:11;17.91;63.85
67748;HTU21D;54543;50.712;6.070;2023-08-08T12:52:36;17.98;64.50
67748;HTU21D;54543;50.712;6.070;2023-08-08T12:55:04;18.07;64.47
67748;HTU21D;54543;50.712;6.070;2023-08-08T12:57:31;18.07;63.67
67748;HTU21D;54543;50.712;6.070;2023-08-08T12:59:57;18.03;64.60
67748;HTU21D;54543;50.712;6.070;2023-08-08T13:02:22;17.99;64.94
67748;HTU21D;54543;50.712;6.070;2023-08-08T13:04:48;18.00;65.39
67748;HTU21D;54543;50.712;6.070;2023-08-08T13:07:13;18.07;64.69
67748;HTU21D;54543;50.712;6.070;2023-08-08T13:09:39;17.99;64.74
67748;HTU21D;54543;50.712;6.070;2023-08-08T13:12:05;17.89;65.17
67748;HTU21D;54543;50.712;6.070;2023-08-08T13:14:31;17.79;65.54
67748;HTU21D;54543;50.712;6.070;2023-08-08T13:16:57;17.69;66.14
67748;HTU21D;54543;50.712;6.070;2023-08-08T13:19:22;17.62;66.69
67748;HTU21D;54543;50.712;6.070;2023-08-08T13:21:51;17.62;67.04
67748;HTU21D;54543;50.712;6.070;2023-08-08T13:24:17;17.68;67.52
67748;HTU21D;54543;50.712;6.070;2023-08-08T13:26:43;17.81;67.30
67748;HTU21D;54543;50.712;6.070;2023-08-08T13:29:11;17.93;66.91
67748;HTU21D;54543;50.712;6.070;2023-08-08T13:31:37;17.98;67.11
67748;HTU21D;54543;50.712;6.070;2023-08-08T13:34:03;17.99;66.94
67748;HTU21D;54543;50.712;6.070;2023-08-08T13:36:29;17.96;66.94
67748;HTU21D;54543;50.712;6.070;2023-08-08T13:38:54;17.91;67.30
67748;HTU21D;54543;50.712;6.070;2023-08-08T13:41:20;17.93;67.59
67748;HTU21D;54543;50.712;6.070;2023-08-08T13:43:45;18.04;67.06
67748;HTU21D;54543;50.712;6.070;2023-08-08T13:46:11;18.03;66.78
67748;HTU21D;54543;50.712;6.070;2023-08-08T13:48:37;17.91;67.45
67748;HTU21D;54543;50.712;6.070;2023-08-08T13:51:02;17.79;68.15
67748;HTU21D;54543;50.712;6.070;2023-08-08T13:53:29;17.73;68.23
67748;HTU21D;54543;50.712;6.070;2023-08-08T13:55:55;17.62;68.68
67748;HTU21D;54543;50.712;6.070;2023-08-08T13:58:21;17.52;69.00
67748;HTU21D;54543;50.712;6.070;2023-08-08T14:00:48;17.48;68.93
67748;HTU21D;54543;50.712;6.070;2023-08-08T14:03:14;17.39;69.40
67748;HTU21D;54543;50.712;6.070;2023-08-08T14:05:40;17.35;69.55
67748;HTU21D;54543;50.712;6.070;2023-08-08T14:08:05;17.31;69.70
67748;HTU21D;54543;50.712;6.070;2023-08-08T14:10:32;17.25;69.88
67748;HTU21D;54543;50.712;6.070;2023-08-08T14:12:58;17.24;70.34
67748;HTU21D;54543;50.712;6.070;2023-08-08T14:15:23;17.25;70.60
67748;HTU21D;54543;50.712;6.070;2023-08-08T14:17:50;17.31;70.46
67748;HTU21D;54543;50.712;6.070;2023-08-08T14:20:16;17.28;70.74
67748;HTU21D;54543;50.712;6.070;2023-08-08T14:22:44;17.34;70.53
67748;HTU21D;54543;50.712;6.070;2023-08-08T14:25:12;17.40;70.55
67748;HTU21D;54543;50.712;6.070;2023-08-08T14:27:37;17.47;70.51
67748;HTU21D;54543;50.712;6.070;2023-08-08T14:30:03;17.49;70.47
67748;HTU21D;54543;50.712;6.070;2023-08-08T14:32:29;17.50;70.64
67748;HTU21D;54543;50.712;6.070;2023-08-08T14:34:55;17.52;70.84
67748;HTU21D;54543;50.712;6.070;2023-08-08T14:37:20;17.53;71.10
67748;HTU21D;54543;50.712;6.070;2023-08-08T14:39:49;17.60;71.00
67748;HTU21D;54543;50.712;6.070;2023-08-08T14:42:14;17.76;70.64
67748;HTU21D;54543;50.712;6.070;2023-08-08T14:44:40;17.88;71.16
67748;HTU21D;54543;50.712;6.070;2023-08-08T14:47:06;18.15;70.81
67748;HTU21D;54543;50.712;6.070;2023-08-08T14:49:31;18.46;70.70
67748;HTU21D;54543;50.712;6.070;2023-08-08T14:51:57;18.70;69.62
67748;HTU21D;54543;50.712;6.070;2023-08-08T14:54:23;18.95;68.46
67748;HTU21D;54543;50.712;6.070;2023-08-08T14:56:48;19.08;67.81
67748;HTU21D;54543;50.712;6.070;2023-08-08T14:59:14;19.12;67.57
67748;HTU21D;54543;50.712;6.070;2023-08-08T15:01:40;19.07;67.27
67748;HTU21D;54543;50.712;6.070;2023-08-08T15:04:05;19.00;66.84
67748;HTU21D;54543;50.712;6.070;2023-08-08T15:06:31;18.93;67.24
67748;HTU21D;54543;50.712;6.070;2023-08-08T15:08:57;18.84;67.23
67748;HTU21D;54543;50.712;6.070;2023-08-08T15:11:23;18.70;67.78
67748;HTU21D;54543;50.712;6.070;2023-08-08T15:13:48;18.64;68.01
67748;HTU21D;54543;50.712;6.070;2023-08-08T15:16:14;18.52;68.15